createdAt,value
2018-04-22T00:00:22.288Z,57.30
2018-04-22T00:02:49.852Z,57.60
2018-04-22T00:05:17.513Z,56.20
2018-04-22T00:07:45.060Z,55.50
2018-04-22T00:10:12.615Z,55.70
2018-04-22T00:12:40.193Z,55.50
2018-04-22T00:15:07.740Z,55.10
2018-04-22T00:17:35.289Z,54.80
2018-04-22T00:20:02.840Z,54.90
2018-04-22T00:22:30.389Z,55.00
2018-04-22T00:24:57.970Z,54.10
2018-04-22T00:27:25.517Z,54.20
2018-04-22T00:29:53.064Z,54.30
2018-04-22T00:32:20.616Z,54.80
2018-04-22T00:34:48.164Z,54.70
2018-04-22T00:37:16.550Z,54.80
2018-04-22T00:39:44.096Z,54.80
2018-04-22T00:42:11.644Z,54.60
2018-04-22T00:44:39.196Z,55.00
2018-04-22T00:47:07.512Z,54.50
2018-04-22T00:49:35.088Z,54.40
2018-04-22T00:52:02.647Z,54.60
2018-04-22T00:54:30.198Z,54.80
2018-04-22T00:56:57.740Z,54.80
2018-04-22T00:59:25.288Z,54.80
2018-04-22T01:01:52.864Z,52.60
2018-04-22T01:04:20.416Z,53.30
2018-04-22T01:06:47.964Z,52.80
2018-04-22T01:09:15.508Z,52.60
2018-04-22T01:11:43.053Z,52.70
2018-04-22T01:14:11.388Z,52.80
2018-04-22T01:16:38.944Z,53.30
2018-04-22T01:19:06.516Z,53.00
2018-04-22T01:21:34.068Z,53.50
2018-04-22T01:24:01.618Z,53.90
2018-04-22T01:26:29.188Z,54.40
2018-04-22T01:28:56.789Z,54.10
2018-04-22T01:31:25.129Z,54.00
2018-04-22T01:33:52.696Z,54.00
2018-04-22T01:36:20.256Z,54.00
2018-04-22T01:38:47.805Z,54.20
2018-04-22T01:41:15.352Z,54.70
2018-04-22T01:43:42.940Z,54.50
2018-04-22T01:46:10.484Z,54.70
2018-04-22T01:48:38.044Z,54.60
2018-04-22T01:51:05.606Z,54.70
2018-04-22T01:53:33.179Z,54.50
2018-04-22T01:56:01.520Z,56.40
2018-04-22T01:58:29.074Z,56.40
2018-04-22T02:00:56.621Z,56.50
2018-04-22T02:03:24.179Z,56.40
2018-04-22T02:05:51.730Z,55.90
2018-04-22T02:08:19.305Z,56.10
2018-04-22T02:10:46.848Z,56.70
2018-04-22T02:13:14.395Z,56.70
2018-04-22T02:15:41.969Z,56.60
2018-04-22T02:18:09.524Z,57.20
2018-04-22T02:20:37.101Z,57.00
2018-04-22T02:23:04.652Z,56.40
2018-04-22T02:25:32.201Z,56.60
2018-04-22T02:27:59.756Z,56.90
2018-04-22T02:30:27.303Z,56.40
2018-04-22T02:32:54.868Z,56.90
2018-04-22T02:35:22.596Z,57.10
2018-04-22T02:37:50.145Z,56.90
2018-04-22T02:40:18.668Z,56.80
2018-04-22T02:42:46.216Z,56.60
2018-04-22T02:45:13.808Z,57.00
2018-04-22T02:47:41.356Z,56.80
2018-04-22T02:50:08.904Z,56.50
2018-04-22T02:52:36.455Z,57.20
2018-04-22T02:55:04.000Z,56.80
2018-04-22T02:57:31.570Z,56.90
2018-04-22T02:59:59.317Z,57.00
2018-04-22T03:02:26.940Z,57.60
2018-04-22T03:04:54.489Z,57.40
2018-04-22T03:07:22.032Z,57.50
2018-04-22T03:09:49.596Z,57.30
2018-04-22T03:12:17.328Z,57.40
2018-04-22T03:14:44.880Z,57.40
2018-04-22T03:17:12.428Z,58.10
2018-04-22T03:19:39.976Z,58.40
2018-04-22T03:22:07.558Z,57.60
2018-04-22T03:24:35.115Z,57.70
2018-04-22T03:27:02.661Z,57.40
2018-04-22T03:29:30.214Z,58.00
2018-04-22T03:31:57.760Z,57.90
2018-04-22T03:34:25.326Z,58.10
2018-04-22T03:36:52.872Z,58.10
2018-04-22T03:39:21.196Z,57.90
2018-04-22T03:41:48.744Z,57.80
2018-04-22T03:44:16.287Z,57.70
2018-04-22T03:46:43.857Z,57.60
2018-04-22T03:49:11.409Z,58.10
2018-04-22T03:51:38.956Z,58.40
2018-04-22T03:54:06.504Z,58.30
2018-04-22T03:56:34.056Z,58.10
2018-04-22T03:59:01.631Z,57.70
2018-04-22T04:01:29.188Z,57.90
2018-04-22T04:03:56.735Z,58.10
2018-04-22T04:06:24.312Z,58.10
2018-04-22T04:08:51.868Z,57.50
2018-04-22T04:11:19.412Z,58.10
2018-04-22T04:13:46.989Z,57.60
2018-04-22T04:16:14.532Z,57.20
2018-04-22T04:19:02.697Z,57.40
2018-04-22T04:21:41.976Z,57.60
2018-04-22T04:27:45.032Z,57.00
2018-04-22T04:30:12.588Z,56.90
2018-04-22T04:32:40.141Z,56.40
2018-04-22T04:35:07.720Z,56.40
2018-04-22T04:37:35.291Z,56.00
2018-04-22T04:40:02.844Z,55.00
2018-04-22T04:42:30.392Z,54.20
2018-04-22T04:44:57.935Z,53.80
2018-04-22T04:47:25.515Z,53.60
2018-04-22T04:49:53.068Z,53.70
2018-04-22T04:52:20.620Z,53.70
2018-04-22T04:54:48.187Z,53.70
2018-04-22T04:57:15.782Z,54.20
2018-04-22T04:59:44.131Z,54.10
2018-04-22T05:02:11.676Z,54.10
2018-04-22T05:04:39.224Z,53.70
2018-04-22T05:07:07.776Z,53.80
2018-04-22T05:09:35.329Z,52.90
2018-04-22T05:12:02.904Z,53.30
2018-04-22T05:14:30.447Z,53.00
2018-04-22T05:16:58.013Z,52.60
2018-04-22T05:19:25.596Z,52.50
2018-04-22T05:21:53.160Z,51.90
2018-04-22T05:24:20.738Z,53.10
2018-04-22T05:26:48.294Z,52.60
2018-04-22T05:29:15.843Z,53.40
2018-04-22T05:31:43.397Z,53.00
2018-04-22T05:34:10.956Z,53.20
2018-04-22T05:36:38.536Z,53.40
2018-04-22T05:39:06.087Z,53.70
2018-04-22T05:41:33.644Z,53.90
2018-04-22T05:44:01.195Z,53.20
2018-04-22T05:46:28.756Z,53.20
2018-04-22T05:48:56.336Z,53.40
2018-04-22T05:51:24.660Z,53.10
2018-04-22T05:53:52.213Z,53.10
2018-04-22T05:56:19.772Z,53.10
2018-04-22T05:58:47.332Z,52.90
2018-04-22T06:01:14.904Z,53.00
2018-04-22T06:03:42.459Z,52.50
2018-04-22T06:06:10.665Z,51.60
2018-04-22T06:08:38.265Z,51.50
2018-04-22T06:11:05.787Z,51.10
2018-04-22T06:13:33.364Z,50.00
2018-04-22T06:16:01.676Z,49.10
2018-04-22T06:18:29.229Z,49.10
2018-04-22T06:20:56.796Z,47.50
2018-04-22T06:23:24.356Z,46.90
2018-04-22T06:25:51.944Z,45.60
2018-04-22T06:28:19.530Z,45.90
2018-04-22T06:30:47.096Z,44.80
2018-04-22T06:33:14.657Z,46.10
2018-04-22T06:35:42.218Z,46.00
2018-04-22T06:38:09.813Z,45.00
2018-04-22T06:40:37.368Z,44.50
2018-04-22T06:43:04.921Z,45.20
2018-04-22T06:45:32.472Z,44.10
2018-04-22T06:48:00.032Z,43.30
2018-04-22T06:50:27.604Z,43.90
2018-04-22T06:52:55.172Z,43.40
2018-04-22T06:55:22.751Z,42.60
2018-04-22T06:57:50.310Z,42.50
2018-04-22T07:00:17.898Z,43.40
2018-04-22T07:02:45.480Z,42.90
2018-04-22T07:05:13.051Z,42.20
2018-04-22T07:07:40.613Z,42.50
2018-04-22T07:10:08.176Z,40.80
2018-04-22T07:12:35.762Z,40.80
2018-04-22T07:15:04.113Z,41.30
2018-04-22T07:17:31.668Z,41.30
2018-04-22T07:19:59.223Z,41.50
2018-04-22T07:22:26.777Z,41.80
2018-04-22T07:24:54.338Z,41.80
2018-04-22T07:27:21.923Z,41.70
2018-04-22T07:29:49.505Z,41.80
2018-04-22T07:32:18.760Z,42.10
2018-04-22T07:34:46.312Z,42.20
2018-04-22T07:37:13.878Z,41.10
2018-04-22T07:39:41.453Z,41.60
2018-04-22T07:42:09.004Z,41.90
2018-04-22T07:44:36.564Z,43.10
2018-04-22T07:47:04.120Z,42.50
2018-04-22T07:49:31.746Z,42.20
2018-04-22T07:51:59.331Z,43.30
2018-04-22T07:54:26.888Z,42.60
2018-04-22T07:56:54.448Z,41.50
2018-04-22T07:59:22.004Z,42.70
2018-04-22T08:01:49.555Z,42.80
2018-04-22T08:04:17.188Z,43.00
2018-04-22T08:06:44.833Z,43.50
2018-04-22T08:09:12.394Z,42.30
2018-04-22T08:11:39.949Z,43.20
2018-04-22T08:14:07.510Z,42.70
2018-04-22T08:16:35.089Z,42.70
2018-04-22T08:19:02.640Z,42.50
2018-04-22T08:21:30.203Z,42.30
2018-04-22T08:23:57.757Z,42.10
2018-04-22T08:26:25.316Z,42.20
2018-04-22T08:28:52.896Z,41.80
2018-04-22T08:31:20.449Z,41.10
2018-04-22T08:33:48.027Z,40.80
2018-04-22T08:36:15.587Z,40.00
2018-04-22T08:38:43.149Z,40.60
2018-04-22T08:41:10.728Z,40.60
2018-04-22T08:43:38.284Z,40.90
2018-04-22T08:46:05.845Z,41.00
2018-04-22T08:48:34.192Z,41.60
2018-04-22T08:51:01.741Z,42.30
2018-04-22T08:53:29.294Z,41.70
2018-04-22T08:55:56.883Z,41.50
2018-04-22T08:58:25.202Z,41.80
2018-04-22T09:00:52.756Z,41.70
2018-04-22T09:03:20.336Z,42.60
2018-04-22T09:05:47.889Z,42.10
2018-04-22T09:08:15.452Z,40.30
2018-04-22T09:10:43.008Z,40.10
2018-04-22T09:13:10.557Z,39.40
2018-04-22T09:15:38.124Z,39.90
2018-04-22T09:18:05.676Z,39.30
2018-04-22T09:20:33.240Z,39.20
2018-04-22T09:23:00.824Z,39.00
2018-04-22T09:25:28.382Z,40.90
2018-04-22T09:27:55.993Z,40.40
2018-04-22T09:30:24.288Z,40.00
2018-04-22T09:32:51.875Z,39.90
2018-04-22T09:35:19.452Z,39.50
2018-04-22T09:37:47.008Z,38.90
2018-04-22T09:40:15.329Z,40.80
2018-04-22T09:42:42.882Z,40.70
2018-04-22T09:45:10.428Z,39.40
2018-04-22T09:47:38.004Z,38.70
2018-04-22T09:50:05.556Z,39.20
2018-04-22T09:52:33.113Z,41.00
2018-04-22T09:55:00.671Z,40.70
2018-04-22T09:57:28.220Z,41.20
2018-04-22T09:59:55.808Z,39.50
2018-04-22T10:02:28.948Z,40.70
2018-04-22T10:04:57.336Z,42.60
2018-04-22T10:07:25.640Z,41.70
2018-04-22T10:09:53.208Z,41.70
2018-04-22T10:12:20.770Z,40.90
2018-04-22T10:14:48.320Z,38.90
2018-04-22T10:17:15.901Z,39.10
2018-04-22T10:19:43.452Z,38.50
2018-04-22T10:22:11.008Z,37.70
2018-04-22T10:24:38.568Z,39.70
2018-04-22T10:27:06.131Z,39.60
2018-04-22T10:29:33.712Z,39.60
2018-04-22T10:32:02.029Z,37.80
2018-04-22T10:34:29.580Z,37.80
2018-04-22T10:36:57.177Z,38.50
2018-04-22T10:39:24.732Z,38.00
2018-04-22T10:41:52.336Z,40.30
2018-04-22T10:44:19.918Z,39.60
2018-04-22T10:46:47.535Z,39.50
2018-04-22T10:49:15.098Z,40.40
2018-04-22T10:51:42.661Z,41.40
2018-04-22T10:54:11.008Z,38.00
2018-04-22T10:56:38.557Z,37.90
2018-04-22T10:59:06.129Z,38.40
2018-04-22T11:01:33.685Z,39.10
2018-04-22T11:04:01.256Z,40.90
2018-04-22T11:06:29.604Z,40.80
2018-04-22T11:08:57.183Z,40.70
2018-04-22T11:11:24.740Z,39.40
2018-04-22T11:13:52.297Z,39.70
2018-04-22T11:16:20.732Z,39.80
2018-04-22T11:18:48.308Z,40.70
2018-04-22T11:21:15.933Z,41.80
2018-04-22T11:23:43.576Z,41.20
2018-04-22T11:26:11.908Z,39.50
2018-04-22T11:28:39.460Z,39.40
2018-04-22T11:31:07.033Z,39.60
2018-04-22T11:33:34.586Z,40.00
2018-04-22T11:36:02.141Z,39.80
2018-04-22T11:38:29.702Z,40.40
2018-04-22T11:40:57.259Z,39.10
2018-04-22T11:43:24.812Z,39.70
2018-04-22T11:45:52.371Z,37.80
2018-04-22T11:48:19.943Z,40.40
2018-04-22T11:50:47.504Z,40.00
2018-04-22T11:53:15.061Z,39.30
2018-04-22T11:55:42.612Z,39.70
2018-04-22T11:58:10.161Z,39.80
2018-04-22T12:00:37.740Z,39.20
2018-04-22T12:03:05.292Z,39.50
2018-04-22T12:05:32.848Z,39.50
2018-04-22T12:08:00.444Z,39.80
2018-04-22T12:10:28.002Z,39.10
2018-04-22T12:12:55.583Z,41.50
2018-04-22T12:15:23.134Z,39.30
2018-04-22T12:17:50.687Z,38.40
2018-04-22T12:20:19.048Z,39.20
2018-04-22T12:22:47.388Z,39.00
2018-04-22T12:25:14.967Z,38.90
2018-04-22T12:27:42.533Z,39.00
2018-04-22T12:30:10.154Z,38.30
2018-04-22T12:32:37.712Z,39.00
2018-04-22T12:35:06.032Z,39.40
2018-04-22T12:37:33.610Z,40.00
2018-04-22T12:40:01.171Z,39.40
2018-04-22T12:42:28.771Z,39.50
2018-04-22T12:44:56.328Z,38.70
2018-04-22T12:47:23.888Z,39.70
2018-04-22T12:49:51.461Z,39.20
2018-04-22T12:52:19.012Z,40.20
2018-04-22T12:54:46.564Z,39.80
2018-04-22T12:57:14.116Z,38.40
2018-04-22T12:59:41.665Z,37.30
2018-04-22T13:02:09.251Z,37.70
2018-04-22T13:04:36.806Z,38.40
2018-04-22T13:07:04.360Z,38.50
2018-04-22T13:09:31.930Z,38.30
2018-04-22T13:11:59.480Z,39.30
2018-04-22T13:14:27.094Z,39.30
2018-04-22T13:16:54.661Z,37.10
2018-04-22T13:19:22.221Z,37.20
2018-04-22T13:21:49.784Z,37.80
2018-04-22T13:24:17.332Z,38.40
2018-04-22T13:26:44.904Z,38.80
2018-04-22T13:29:12.462Z,38.50
2018-04-22T13:31:40.061Z,38.80
2018-04-22T13:34:07.602Z,38.80
2018-04-22T13:36:35.164Z,39.20
2018-04-22T13:39:02.918Z,39.30
2018-04-22T13:41:30.513Z,39.10
2018-04-22T13:43:58.064Z,39.00
2018-04-22T13:46:26.380Z,43.00
2018-04-22T13:48:53.937Z,43.00
2018-04-22T13:51:21.520Z,44.40
2018-04-22T13:53:49.069Z,44.40
2018-04-22T13:56:16.627Z,44.40
2018-04-22T13:58:44.367Z,44.80
2018-04-22T14:01:11.926Z,45.80
2018-04-22T14:03:39.513Z,44.40
2018-04-22T14:06:07.071Z,45.40
2018-04-22T14:08:34.628Z,45.50
2018-04-22T14:11:02.177Z,46.20
2018-04-22T14:13:29.727Z,45.80
2018-04-22T14:15:57.348Z,46.80
2018-04-22T14:18:24.896Z,47.00
2018-04-22T14:20:52.457Z,47.40
2018-04-22T14:23:20.038Z,47.50
2018-04-22T14:25:47.625Z,47.90
2018-04-22T14:28:15.204Z,48.20
2018-04-22T14:30:42.756Z,48.20
2018-04-22T14:33:10.307Z,48.80
2018-04-22T14:35:37.867Z,49.20
2018-04-22T14:38:05.463Z,49.50
2018-04-22T14:40:33.805Z,49.20
2018-04-22T14:43:01.365Z,49.20
2018-04-22T14:45:40.868Z,49.20
2018-04-22T14:48:08.420Z,49.30
2018-04-22T14:50:36.176Z,49.60
2018-04-22T14:53:03.728Z,50.10
2018-04-22T14:55:31.281Z,49.90
2018-04-22T14:57:58.866Z,50.00
2018-04-22T15:00:26.424Z,50.30
2018-04-22T15:02:53.980Z,49.40
2018-04-22T15:05:21.553Z,49.70
2018-04-22T15:07:49.103Z,49.80
2018-04-22T15:10:16.660Z,50.40
2018-04-22T15:12:44.247Z,50.40
2018-04-22T15:15:11.808Z,49.80
2018-04-22T15:17:39.380Z,49.60
2018-04-22T15:20:06.940Z,49.90
2018-04-22T15:22:35.299Z,50.50
2018-04-22T15:25:02.871Z,50.50
2018-04-22T15:27:31.270Z,51.40
2018-04-22T15:29:58.827Z,51.40
2018-04-22T15:32:26.404Z,51.20
2018-04-22T15:34:53.964Z,51.30
2018-04-22T15:37:21.521Z,51.20
2018-04-22T15:39:49.076Z,51.20
2018-04-22T15:42:16.665Z,51.60
2018-04-22T15:44:44.263Z,51.60
2018-04-22T15:47:12.584Z,51.90
2018-04-22T15:49:40.144Z,51.80
2018-04-22T15:52:07.703Z,52.40
2018-04-22T15:54:35.260Z,52.30
2018-04-22T15:57:02.840Z,52.00
2018-04-22T15:59:30.395Z,52.00
2018-04-22T16:01:57.954Z,52.50
2018-04-22T16:04:25.533Z,52.60
2018-04-22T16:06:53.094Z,53.10
2018-04-22T16:09:20.688Z,53.20
2018-04-22T16:11:48.240Z,53.40
2018-04-22T16:14:15.841Z,53.60
2018-04-22T16:16:43.378Z,53.20
2018-04-22T16:19:10.935Z,53.20
2018-04-22T16:21:38.522Z,53.90
2018-04-22T16:24:06.073Z,53.60
2018-04-22T16:26:33.628Z,54.10
2018-04-22T16:29:01.200Z,53.80
2018-04-22T16:31:28.749Z,53.10
2018-04-22T16:33:56.336Z,54.00
2018-04-22T16:36:23.884Z,53.40
2018-04-22T16:38:51.441Z,53.20
2018-04-22T16:41:18.987Z,54.30
2018-04-22T16:43:48.047Z,56.00
2018-04-22T16:46:15.620Z,56.00
2018-04-22T16:48:43.172Z,56.30
2018-04-22T16:51:10.748Z,56.60
2018-04-22T16:53:38.310Z,56.70
2018-04-22T16:56:05.864Z,55.60
2018-04-22T16:58:33.444Z,55.40
2018-04-22T17:01:00.992Z,55.70
2018-04-22T17:03:28.560Z,55.70
2018-04-22T17:05:56.203Z,57.20
2018-04-22T17:08:23.760Z,57.70
2018-04-22T17:10:51.344Z,57.70
2018-04-22T17:13:19.672Z,58.50
2018-04-22T17:15:47.216Z,58.40
2018-04-22T17:18:14.769Z,58.50
2018-04-22T17:20:42.332Z,58.50
2018-04-22T17:23:09.905Z,58.80
2018-04-22T17:25:37.547Z,58.70
2018-04-22T17:28:05.095Z,59.20
2018-04-22T17:30:32.645Z,59.40
2018-04-22T17:33:00.202Z,59.80
2018-04-22T17:35:27.789Z,59.70
2018-04-22T17:37:55.340Z,60.10
2018-04-22T17:40:22.897Z,61.10
2018-04-22T17:42:50.444Z,60.90
2018-04-22T17:45:18.021Z,60.10
2018-04-22T17:47:45.599Z,59.60
2018-04-22T17:50:13.152Z,59.00
2018-04-22T17:52:40.700Z,59.30
2018-04-22T17:55:08.255Z,59.30
2018-04-22T17:57:35.811Z,59.70
2018-04-22T18:00:03.377Z,60.00
2018-04-22T18:02:30.920Z,60.20
2018-04-22T18:04:58.478Z,59.80
2018-04-22T18:07:26.028Z,59.70
2018-04-22T18:09:53.577Z,60.00
2018-04-22T18:12:21.154Z,59.40
2018-04-22T18:14:48.701Z,59.50
2018-04-22T18:17:16.256Z,59.20
2018-04-22T18:19:43.807Z,59.50
2018-04-22T18:22:11.360Z,59.20
2018-04-22T18:24:38.960Z,59.30
2018-04-22T18:27:06.507Z,59.10
2018-04-22T18:29:34.056Z,59.50
2018-04-22T18:32:01.624Z,59.90
2018-04-22T18:34:29.184Z,61.00
2018-04-22T18:36:57.472Z,62.50
2018-04-22T18:39:25.017Z,63.60
2018-04-22T18:41:53.348Z,63.40
2018-04-22T18:44:21.676Z,64.70
2018-04-22T18:46:49.232Z,64.60
2018-04-22T18:49:16.812Z,65.40
2018-04-22T18:51:44.357Z,66.00
2018-04-22T18:54:12.684Z,68.20
2018-04-22T18:56:40.245Z,68.20
2018-04-22T18:59:07.799Z,68.80
2018-04-22T19:01:35.372Z,68.80
2018-04-22T19:04:02.920Z,69.10
2018-04-22T19:06:30.474Z,69.20
2018-04-22T19:08:58.028Z,69.30
2018-04-22T19:11:26.344Z,68.80
2018-04-22T19:13:53.916Z,68.80
2018-04-22T19:16:21.480Z,68.20
2018-04-22T19:18:49.036Z,67.80
2018-04-22T19:21:16.604Z,68.00
2018-04-22T19:23:44.160Z,68.70
2018-04-22T19:26:11.731Z,69.20
2018-04-22T19:28:39.277Z,69.40
2018-04-22T19:31:06.833Z,69.60
2018-04-22T19:33:34.393Z,68.90
2018-04-22T19:36:01.950Z,70.70
2018-04-22T19:38:29.528Z,71.00
2018-04-22T19:40:57.101Z,71.20
2018-04-22T19:43:24.661Z,71.00
2018-04-22T19:45:52.216Z,71.00
2018-04-22T19:48:19.791Z,70.30
2018-04-22T19:50:47.413Z,70.70
2018-04-22T19:53:15.040Z,71.40
2018-04-22T19:55:42.589Z,70.60
2018-04-22T19:58:10.141Z,70.80
2018-04-22T20:00:37.704Z,71.80
2018-04-22T20:03:05.277Z,72.30
2018-04-22T20:05:32.832Z,72.50
2018-04-22T20:08:00.384Z,72.50
2018-04-22T20:10:27.932Z,72.70
2018-04-22T20:12:55.495Z,71.70
2018-04-22T20:15:23.076Z,72.20
2018-04-22T20:17:50.636Z,72.60
2018-04-22T20:20:18.192Z,72.40
2018-04-22T20:22:45.756Z,71.70
2018-04-22T20:25:13.313Z,72.70
2018-04-22T20:27:41.684Z,72.40
2018-04-22T20:30:09.264Z,71.70
2018-04-22T20:32:36.842Z,71.50
2018-04-22T20:35:05.156Z,72.00
2018-04-22T20:37:32.707Z,72.00
2018-04-22T20:40:00.281Z,71.30
2018-04-22T20:42:27.902Z,72.20
2018-04-22T20:44:56.188Z,72.00
2018-04-22T20:47:23.740Z,72.00
2018-04-22T20:49:51.284Z,72.10
2018-04-22T20:52:19.664Z,71.10
2018-04-22T20:54:47.213Z,71.10
2018-04-22T20:57:14.760Z,71.00
2018-04-22T20:59:44.106Z,71.60
2018-04-22T21:02:11.653Z,71.50
2018-04-22T21:04:39.232Z,72.60
2018-04-22T21:07:06.777Z,73.30
2018-04-22T21:09:34.340Z,73.00
2018-04-22T21:12:01.900Z,74.10
2018-04-22T21:14:29.456Z,73.50
2018-04-22T21:16:57.032Z,73.90
2018-04-22T21:19:24.580Z,73.90
2018-04-22T21:21:52.129Z,74.50
2018-04-22T21:24:19.688Z,74.20
2018-04-22T21:26:48.089Z,74.60
2018-04-22T21:29:15.668Z,74.40
2018-04-22T21:31:43.223Z,73.50
2018-04-22T21:34:10.772Z,74.10
2018-04-22T21:36:38.345Z,73.90
2018-04-22T21:39:06.665Z,74.70
2018-04-22T21:41:34.212Z,74.50
2018-04-22T21:44:01.764Z,74.10
2018-04-22T21:46:29.316Z,74.10
2018-04-22T21:48:56.882Z,74.90
2018-04-22T21:51:24.445Z,75.10
2018-04-22T21:53:51.995Z,75.80
2018-04-22T21:56:19.544Z,74.80
2018-04-22T21:58:47.856Z,75.10
2018-04-22T22:01:15.400Z,75.10
2018-04-22T22:03:42.994Z,75.00
2018-04-22T22:06:10.555Z,74.60
2018-04-22T22:08:38.120Z,74.30
2018-04-22T22:11:05.676Z,75.20
2018-04-22T22:13:33.224Z,75.80
2018-04-22T22:16:00.791Z,75.50
2018-04-22T22:18:28.336Z,76.20
2018-04-22T22:20:55.879Z,74.80
2018-04-22T22:23:23.432Z,75.20
2018-04-22T22:25:50.976Z,75.80
2018-04-22T22:28:18.552Z,75.00
2018-04-22T22:30:46.102Z,76.50
2018-04-22T22:33:13.655Z,75.80
2018-04-22T22:35:41.210Z,76.80
2018-04-22T22:38:08.784Z,77.90
2018-04-22T22:40:36.365Z,78.40
2018-04-22T22:43:04.680Z,76.00
2018-04-22T22:45:32.225Z,76.00
2018-04-22T22:47:59.780Z,76.60
2018-04-22T22:50:28.100Z,78.10
2018-04-22T22:52:55.674Z,78.00
2018-04-22T22:55:23.229Z,79.10
2018-04-22T22:57:50.780Z,77.50
2018-04-22T23:00:18.377Z,77.00
2018-04-22T23:02:45.984Z,77.50
2018-04-22T23:05:13.524Z,76.20
2018-04-22T23:07:41.836Z,77.70
2018-04-22T23:10:09.392Z,77.70
2018-04-22T23:12:36.962Z,77.70
2018-04-22T23:15:04.508Z,77.50
2018-04-22T23:17:32.081Z,77.50
2018-04-22T23:19:59.644Z,77.20
2018-04-22T23:22:27.192Z,76.20
2018-04-22T23:24:54.748Z,78.50
2018-04-22T23:27:22.307Z,79.40
2018-04-22T23:29:49.884Z,77.30
2018-04-22T23:32:17.440Z,78.50
2018-04-22T23:34:44.984Z,79.90
2018-04-22T23:37:12.532Z,77.90
2018-04-22T23:39:40.089Z,79.00
2018-04-22T23:42:07.656Z,80.60
2018-04-22T23:44:35.202Z,78.30
2018-04-22T23:47:02.756Z,78.20
2018-04-22T23:49:30.316Z,78.10
2018-04-22T23:51:57.871Z,78.50
2018-04-22T23:54:25.519Z,79.70
2018-04-22T23:56:53.043Z,78.90
2018-04-22T23:59:20.596Z,79.30
